sensor_id;sensor_type;location;lat;lon;timestamp;P1;durP1;ratioP1;P2;durP2;ratioP2
18296;SDS011;18066;52.106;5.534;2024-01-30T06:39:16;9.17;;;5.07;;
18296;SDS011;18066;52.106;5.534;2024-01-30T06:45:44;7.93;;;5.00;;
18296;SDS011;18066;52.106;5.534;2024-01-30T06:49:35;7.03;;;4.93;;
18296;SDS011;18066;52.106;5.534;2024-01-30T06:52:31;16.63;;;5.00;;
18296;SDS011;18066;52.106;5.534;2024-01-30T06:58:18;10.65;;;5.60;;
18296;SDS011;18066;52.106;5.534;2024-01-30T07:00:51;8.17;;;5.33;;
18296;SDS011;18066;52.106;5.534;2024-01-30T07:03:20;13.52;;;6.47;;
18296;SDS011;18066;52.106;5.534;2024-01-30T07:05:49;9.97;;;6.00;;
18296;SDS011;18066;52.106;5.534;2024-01-30T07:08:16;6.77;;;4.73;;
18296;SDS011;18066;52.106;5.534;2024-01-30T07:10:47;7.77;;;4.43;;
18296;SDS011;18066;52.106;5.534;2024-01-30T07:16:46;11.20;;;5.10;;
18296;SDS011;18066;52.106;5.534;2024-01-30T07:19:26;7.90;;;5.03;;
18296;SDS011;18066;52.106;5.534;2024-01-30T08:43:05;11.57;;;5.43;;
18296;SDS011;18066;52.106;5.534;2024-01-30T08:46:42;8.30;;;5.17;;
18296;SDS011;18066;52.106;5.534;2024-01-30T09:22:08;10.50;;;5.67;;
18296;SDS011;18066;52.106;5.534;2024-01-30T09:25:21;8.53;;;5.60;;
18296;SDS011;18066;52.106;5.534;2024-01-30T09:28:35;14.97;;;5.40;;
18296;SDS011;18066;52.106;5.534;2024-01-30T09:34:07;10.63;;;5.77;;
18296;SDS011;18066;52.106;5.534;2024-01-30T09:36:47;11.27;;;5.13;;
18296;SDS011;18066;52.106;5.534;2024-01-30T09:40:12;11.60;;;5.93;;
18296;SDS011;18066;52.106;5.534;2024-01-30T09:43:02;18.10;;;7.28;;
18296;SDS011;18066;52.106;5.534;2024-01-30T09:45:49;10.17;;;5.97;;
18296;SDS011;18066;52.106;5.534;2024-01-30T09:48:48;13.33;;;6.27;;
18296;SDS011;18066;52.106;5.534;2024-01-30T09:51:25;17.07;;;5.70;;
18296;SDS011;18066;52.106;5.534;2024-01-30T09:54:22;10.13;;;6.03;;
18296;SDS011;18066;52.106;5.534;2024-01-30T09:56:59;7.60;;;5.10;;
18296;SDS011;18066;52.106;5.534;2024-01-30T09:59:29;10.77;;;6.20;;
18296;SDS011;18066;52.106;5.534;2024-01-30T10:02:07;10.73;;;5.77;;
18296;SDS011;18066;52.106;5.534;2024-01-30T10:04:36;8.23;;;5.60;;
18296;SDS011;18066;52.106;5.534;2024-01-30T10:07:04;12.97;;;5.70;;
18296;SDS011;18066;52.106;5.534;2024-01-30T10:09:32;12.77;;;5.97;;
18296;SDS011;18066;52.106;5.534;2024-01-30T10:12:01;9.53;;;6.03;;
18296;SDS011;18066;52.106;5.534;2024-01-30T10:14:28;10.23;;;5.90;;
18296;SDS011;18066;52.106;5.534;2024-01-30T10:16:55;10.97;;;5.90;;
18296;SDS011;18066;52.106;5.534;2024-01-30T10:19:24;10.73;;;5.33;;
18296;SDS011;18066;52.106;5.534;2024-01-30T10:21:51;12.23;;;5.00;;
18296;SDS011;18066;52.106;5.534;2024-01-30T10:24:23;9.43;;;5.40;;
18296;SDS011;18066;52.106;5.534;2024-01-30T10:26:50;9.83;;;5.43;;
18296;SDS011;18066;52.106;5.534;2024-01-30T10:29:17;10.63;;;5.33;;
18296;SDS011;18066;52.106;5.534;2024-01-30T10:31:44;10.77;;;4.83;;
18296;SDS011;18066;52.106;5.534;2024-01-30T10:34:23;11.43;;;5.97;;
18296;SDS011;18066;52.106;5.534;2024-01-30T10:36:50;10.30;;;5.03;;
18296;SDS011;18066;52.106;5.534;2024-01-30T10:39:26;12.10;;;6.50;;
18296;SDS011;18066;52.106;5.534;2024-01-30T10:41:58;11.73;;;5.63;;
18296;SDS011;18066;52.106;5.534;2024-01-30T10:44:30;11.00;;;5.60;;
18296;SDS011;18066;52.106;5.534;2024-01-30T10:47:05;9.33;;;5.33;;
18296;SDS011;18066;52.106;5.534;2024-01-30T10:49:34;9.90;;;5.07;;
18296;SDS011;18066;52.106;5.534;2024-01-30T10:52:03;9.47;;;5.47;;
18296;SDS011;18066;52.106;5.534;2024-01-30T10:54:33;14.40;;;5.95;;
18296;SDS011;18066;52.106;5.534;2024-01-30T10:57:04;14.10;;;5.33;;
18296;SDS011;18066;52.106;5.534;2024-01-30T11:00:20;11.37;;;5.50;;
18296;SDS011;18066;52.106;5.534;2024-01-30T11:03:05;11.53;;;6.00;;
18296;SDS011;18066;52.106;5.534;2024-01-30T11:06:12;10.10;;;4.93;;
18296;SDS011;18066;52.106;5.534;2024-01-30T11:09:01;11.53;;;5.93;;
18296;SDS011;18066;52.106;5.534;2024-01-30T11:11:34;11.63;;;5.23;;
18296;SDS011;18066;52.106;5.534;2024-01-30T11:14:16;17.03;;;5.87;;
18296;SDS011;18066;52.106;5.534;2024-01-30T11:16:50;10.57;;;5.53;;
18296;SDS011;18066;52.106;5.534;2024-01-30T11:19:22;10.87;;;5.60;;
18296;SDS011;18066;52.106;5.534;2024-01-30T11:21:50;9.70;;;5.23;;
18296;SDS011;18066;52.106;5.534;2024-01-30T11:24:19;8.37;;;5.10;;
18296;SDS011;18066;52.106;5.534;2024-01-30T11:26:49;10.93;;;4.97;;
18296;SDS011;18066;52.106;5.534;2024-01-30T11:29:40;10.13;;;4.83;;
18296;SDS011;18066;52.106;5.534;2024-01-30T11:32:29;8.90;;;4.53;;
18296;SDS011;18066;52.106;5.534;2024-01-30T12:26:19;3.30;;;1.30;;
18296;SDS011;18066;52.106;5.534;2024-01-30T12:30:45;4.27;;;1.50;;
18296;SDS011;18066;52.106;5.534;2024-01-30T16:39:55;6.67;;;5.40;;
18296;SDS011;18066;52.106;5.534;2024-01-30T16:42:18;8.60;;;6.03;;
18296;SDS011;18066;52.106;5.534;2024-01-30T16:44:56;8.70;;;5.50;;
18296;SDS011;18066;52.106;5.534;2024-01-30T16:47:43;7.80;;;5.43;;
18296;SDS011;18066;52.106;5.534;2024-01-30T16:50:36;7.93;;;5.60;;
18296;SDS011;18066;52.106;5.534;2024-01-30T16:56:55;7.80;;;5.60;;
18296;SDS011;18066;52.106;5.534;2024-01-30T16:59:48;6.47;;;5.37;;
18296;SDS011;18066;52.106;5.534;2024-01-30T17:02:42;8.37;;;5.80;;
18296;SDS011;18066;52.106;5.534;2024-01-30T17:05:34;7.10;;;4.70;;
18296;SDS011;18066;52.106;5.534;2024-01-30T17:08:31;4.70;;;4.20;;
18296;SDS011;18066;52.106;5.534;2024-01-30T17:11:29;5.57;;;3.63;;
18296;SDS011;18066;52.106;5.534;2024-01-30T17:20:23;4.00;;;2.73;;
18296;SDS011;18066;52.106;5.534;2024-01-30T17:23:10;5.57;;;2.83;;
18296;SDS011;18066;52.106;5.534;2024-01-30T17:26:00;5.60;;;2.63;;
18296;SDS011;18066;52.106;5.534;2024-01-30T17:29:14;6.77;;;3.07;;
18296;SDS011;18066;52.106;5.534;2024-01-30T17:31:59;7.50;;;3.47;;
18296;SDS011;18066;52.106;5.534;2024-01-30T17:37:40;4.53;;;2.53;;
18296;SDS011;18066;52.106;5.534;2024-01-30T17:40:20;3.33;;;2.27;;
18296;SDS011;18066;52.106;5.534;2024-01-30T17:43:03;2.70;;;1.80;;
18296;SDS011;18066;52.106;5.534;2024-01-30T17:45:49;1.67;;;1.50;;
18296;SDS011;18066;52.106;5.534;2024-01-30T17:49:59;3.80;;;1.73;;
18296;SDS011;18066;52.106;5.534;2024-01-30T17:51:57;4.20;;;2.00;;
18296;SDS011;18066;52.106;5.534;2024-01-30T17:55:00;3.60;;;2.10;;
18296;SDS011;18066;52.106;5.534;2024-01-30T17:57:40;4.67;;;2.20;;
18296;SDS011;18066;52.106;5.534;2024-01-30T18:00:27;3.90;;;2.20;;
